sensor_id;sensor_type;location;lat;lon;timestamp;P1;durP1;ratioP1;P2;durP2;ratioP2
60370;SDS011;48550;40.588;49.684;2023-03-01T00:01:05;56.35;;;24.33;;
60370;SDS011;48550;40.588;49.684;2023-03-01T00:03:35;46.08;;;22.20;;
60370;SDS011;48550;40.588;49.684;2023-03-01T00:06:01;53.90;;;23.35;;
60370;SDS011;48550;40.588;49.684;2023-03-01T00:08:28;51.63;;;22.67;;
60370;SDS011;48550;40.588;49.684;2023-03-01T00:11:01;47.63;;;22.77;;
60370;SDS011;48550;40.588;49.684;2023-03-01T00:13:29;45.03;;;22.95;;
60370;SDS011;48550;40.588;49.684;2023-03-01T00:15:55;43.75;;;21.95;;
60370;SDS011;48550;40.588;49.684;2023-03-01T00:18:21;50.15;;;22.60;;
60370;SDS011;48550;40.588;49.684;2023-03-01T00:20:51;44.10;;;21.40;;
60370;SDS011;48550;40.588;49.684;2023-03-01T00:23:18;46.88;;;21.67;;
60370;SDS011;48550;40.588;49.684;2023-03-01T00:25:44;47.00;;;21.95;;
60370;SDS011;48550;40.588;49.684;2023-03-01T00:28:10;47.20;;;21.20;;
60370;SDS011;48550;40.588;49.684;2023-03-01T00:30:36;42.65;;;20.95;;
60370;SDS011;48550;40.588;49.684;2023-03-01T00:33:02;43.75;;;21.77;;
60370;SDS011;48550;40.588;49.684;2023-03-01T00:35:28;50.65;;;23.02;;
60370;SDS011;48550;40.588;49.684;2023-03-01T00:37:53;47.67;;;22.83;;
60370;SDS011;48550;40.588;49.684;2023-03-01T00:40:29;49.45;;;24.48;;
60370;SDS011;48550;40.588;49.684;2023-03-01T00:42:57;50.33;;;23.38;;
60370;SDS011;48550;40.588;49.684;2023-03-01T00:45:23;44.35;;;21.42;;
60370;SDS011;48550;40.588;49.684;2023-03-01T00:47:50;46.58;;;20.95;;
60370;SDS011;48550;40.588;49.684;2023-03-01T00:50:16;44.88;;;20.38;;
60370;SDS011;48550;40.588;49.684;2023-03-01T00:52:42;45.75;;;20.15;;
60370;SDS011;48550;40.588;49.684;2023-03-01T00:55:07;40.92;;;19.70;;
60370;SDS011;48550;40.588;49.684;2023-03-01T00:57:33;39.92;;;19.58;;
60370;SDS011;48550;40.588;49.684;2023-03-01T00:59:59;39.03;;;18.88;;
60370;SDS011;48550;40.588;49.684;2023-03-01T01:02:25;39.83;;;19.58;;
60370;SDS011;48550;40.588;49.684;2023-03-01T01:04:51;43.50;;;19.40;;
60370;SDS011;48550;40.588;49.684;2023-03-01T01:07:17;40.05;;;20.25;;
60370;SDS011;48550;40.588;49.684;2023-03-01T01:09:45;37.70;;;19.05;;
60370;SDS011;48550;40.588;49.684;2023-03-01T01:12:11;40.40;;;21.58;;
60370;SDS011;48550;40.588;49.684;2023-03-01T01:14:37;39.85;;;18.95;;
60370;SDS011;48550;40.588;49.684;2023-03-01T01:17:03;41.30;;;18.38;;
60370;SDS011;48550;40.588;49.684;2023-03-01T01:19:29;38.60;;;18.60;;
60370;SDS011;48550;40.588;49.684;2023-03-01T01:21:55;41.85;;;21.60;;
60370;SDS011;48550;40.588;49.684;2023-03-01T01:24:22;38.78;;;18.70;;
60370;SDS011;48550;40.588;49.684;2023-03-01T01:26:47;37.28;;;19.63;;
60370;SDS011;48550;40.588;49.684;2023-03-01T01:29:13;43.75;;;21.60;;
60370;SDS011;48550;40.588;49.684;2023-03-01T01:31:40;44.92;;;21.35;;
60370;SDS011;48550;40.588;49.684;2023-03-01T01:34:07;41.95;;;20.80;;
60370;SDS011;48550;40.588;49.684;2023-03-01T01:36:37;43.65;;;20.85;;
60370;SDS011;48550;40.588;49.684;2023-03-01T01:39:03;36.88;;;19.40;;
60370;SDS011;48550;40.588;49.684;2023-03-01T01:41:29;41.20;;;19.27;;
60370;SDS011;48550;40.588;49.684;2023-03-01T01:44:18;41.25;;;19.63;;
60370;SDS011;48550;40.588;49.684;2023-03-01T01:46:48;45.85;;;20.00;;
60370;SDS011;48550;40.588;49.684;2023-03-01T01:51:48;36.38;;;18.17;;
60370;SDS011;48550;40.588;49.684;2023-03-01T01:54:21;37.08;;;17.13;;
60370;SDS011;48550;40.588;49.684;2023-03-01T01:56:54;41.05;;;19.58;;
60370;SDS011;48550;40.588;49.684;2023-03-01T01:59:24;37.55;;;19.13;;
60370;SDS011;48550;40.588;49.684;2023-03-01T02:01:51;44.50;;;18.63;;
60370;SDS011;48550;40.588;49.684;2023-03-01T02:04:17;36.05;;;19.20;;
60370;SDS011;48550;40.588;49.684;2023-03-01T02:07:18;39.85;;;17.85;;
60370;SDS011;48550;40.588;49.684;2023-03-01T02:09:42;35.38;;;17.50;;
60370;SDS011;48550;40.588;49.684;2023-03-01T02:12:12;35.17;;;17.67;;
60370;SDS011;48550;40.588;49.684;2023-03-01T02:14:39;42.70;;;19.13;;
60370;SDS011;48550;40.588;49.684;2023-03-01T02:17:04;34.47;;;17.35;;
60370;SDS011;48550;40.588;49.684;2023-03-01T02:22:37;41.42;;;17.17;;
60370;SDS011;48550;40.588;49.684;2023-03-01T02:25:07;37.95;;;17.35;;
60370;SDS011;48550;40.588;49.684;2023-03-01T02:27:40;35.45;;;17.38;;
60370;SDS011;48550;40.588;49.684;2023-03-01T02:30:14;44.55;;;18.02;;
60370;SDS011;48550;40.588;49.684;2023-03-01T02:32:40;41.42;;;18.48;;
60370;SDS011;48550;40.588;49.684;2023-03-01T02:35:12;43.97;;;19.33;;
60370;SDS011;48550;40.588;49.684;2023-03-01T02:37:40;39.28;;;19.15;;
60370;SDS011;48550;40.588;49.684;2023-03-01T02:40:14;38.47;;;19.33;;
60370;SDS011;48550;40.588;49.684;2023-03-01T02:42:50;37.67;;;18.98;;
60370;SDS011;48550;40.588;49.684;2023-03-01T02:45:18;42.72;;;19.23;;
60370;SDS011;48550;40.588;49.684;2023-03-01T02:47:44;41.85;;;18.88;;
60370;SDS011;48550;40.588;49.684;2023-03-01T02:53:11;44.25;;;20.33;;
60370;SDS011;48550;40.588;49.684;2023-03-01T02:55:44;40.97;;;18.88;;
60370;SDS011;48550;40.588;49.684;2023-03-01T02:58:10;47.83;;;19.23;;
60370;SDS011;48550;40.588;49.684;2023-03-01T03:00:36;43.53;;;19.33;;
60370;SDS011;48550;40.588;49.684;2023-03-01T03:03:05;41.42;;;19.92;;
60370;SDS011;48550;40.588;49.684;2023-03-01T03:05:32;54.20;;;20.63;;
60370;SDS011;48550;40.588;49.684;2023-03-01T03:08:00;50.10;;;20.90;;
60370;SDS011;48550;40.588;49.684;2023-03-01T03:10:27;45.45;;;21.40;;
60370;SDS011;48550;40.588;49.684;2023-03-01T03:12:59;48.47;;;20.95;;
60370;SDS011;48550;40.588;49.684;2023-03-01T03:15:29;46.00;;;21.50;;
60370;SDS011;48550;40.588;49.684;2023-03-01T03:17:56;55.17;;;24.42;;
60370;SDS011;48550;40.588;49.684;2023-03-01T03:20:23;56.33;;;23.40;;
60370;SDS011;48550;40.588;49.684;2023-03-01T03:22:52;62.47;;;25.92;;
60370;SDS011;48550;40.588;49.684;2023-03-01T03:25:19;67.60;;;27.52;;
60370;SDS011;48550;40.588;49.684;2023-03-01T03:27:46;70.45;;;27.73;;
60370;SDS011;48550;40.588;49.684;2023-03-01T03:30:15;68.97;;;29.00;;
60370;SDS011;48550;40.588;49.684;2023-03-01T03:32:43;81.43;;;32.38;;
60370;SDS011;48550;40.588;49.684;2023-03-01T03:35:20;86.03;;;31.02;;
60370;SDS011;48550;40.588;49.684;2023-03-01T03:37:49;71.75;;;30.48;;
60370;SDS011;48550;40.588;49.684;2023-03-01T03:40:30;73.03;;;28.63;;
60370;SDS011;48550;40.588;49.684;2023-03-01T03:42:57;66.53;;;28.52;;
60370;SDS011;48550;40.588;49.684;2023-03-01T03:45:23;72.13;;;29.35;;
60370;SDS011;48550;40.588;49.684;2023-03-01T03:47:49;74.13;;;27.73;;
60370;SDS011;48550;40.588;49.684;2023-03-01T03:50:15;67.75;;;26.00;;
60370;SDS011;48550;40.588;49.684;2023-03-01T03:52:42;61.88;;;26.10;;
60370;SDS011;48550;40.588;49.684;2023-03-01T03:55:08;73.65;;;26.55;;
60370;SDS011;48550;40.588;49.684;2023-03-01T03:57:39;61.97;;;26.67;;
60370;SDS011;48550;40.588;49.684;2023-03-01T04:00:08;70.07;;;25.13;;
60370;SDS011;48550;40.588;49.684;2023-03-01T04:02:42;79.05;;;25.20;;
60370;SDS011;48550;40.588;49.684;2023-03-01T04:05:09;67.68;;;28.00;;
60370;SDS011;48550;40.588;49.684;2023-03-01T04:07:36;64.90;;;24.92;;
60370;SDS011;48550;40.588;49.684;2023-03-01T04:10:06;62.00;;;26.70;;
60370;SDS011;48550;40.588;49.684;2023-03-01T04:12:35;70.50;;;27.95;;
60370;SDS011;48550;40.588;49.684;2023-03-01T04:15:01;64.35;;;28.15;;
60370;SDS011;48550;40.588;49.684;2023-03-01T04:17:38;74.25;;;30.27;;
60370;SDS011;48550;40.588;49.684;2023-03-01T04:20:04;70.72;;;30.42;;
60370;SDS011;48550;40.588;49.684;2023-03-01T04:22:32;72.20;;;29.88;;
60370;SDS011;48550;40.588;49.684;2023-03-01T04:24:58;68.85;;;30.95;;
60370;SDS011;48550;40.588;49.684;2023-03-01T04:27:32;66.50;;;31.13;;
60370;SDS011;48550;40.588;49.684;2023-03-01T04:29:58;62.45;;;28.35;;
60370;SDS011;48550;40.588;49.684;2023-03-01T04:32:24;75.53;;;31.17;;
60370;SDS011;48550;40.588;49.684;2023-03-01T04:34:50;74.95;;;32.13;;
60370;SDS011;48550;40.588;49.684;2023-03-01T04:37:15;68.93;;;33.00;;
60370;SDS011;48550;40.588;49.684;2023-03-01T04:39:41;69.70;;;33.20;;
60370;SDS011;48550;40.588;49.684;2023-03-01T04:42:13;84.13;;;35.53;;
60370;SDS011;48550;40.588;49.684;2023-03-01T04:44:40;75.30;;;34.13;;
60370;SDS011;48550;40.588;49.684;2023-03-01T04:47:06;80.28;;;37.08;;
60370;SDS011;48550;40.588;49.684;2023-03-01T04:49:31;107.00;;;37.53;;
60370;SDS011;48550;40.588;49.684;2023-03-01T04:51:57;102.70;;;40.00;;
60370;SDS011;48550;40.588;49.684;2023-03-01T04:54:27;99.88;;;40.85;;
60370;SDS011;48550;40.588;49.684;2023-03-01T04:56:53;91.32;;;40.35;;
60370;SDS011;48550;40.588;49.684;2023-03-01T04:59:19;80.05;;;37.90;;
60370;SDS011;48550;40.588;49.684;2023-03-01T05:01:49;80.82;;;37.00;;
60370;SDS011;48550;40.588;49.684;2023-03-01T05:04:15;83.68;;;37.45;;
60370;SDS011;48550;40.588;49.684;2023-03-01T05:06:41;84.30;;;37.47;;
60370;SDS011;48550;40.588;49.684;2023-03-01T05:09:07;95.93;;;40.60;;
60370;SDS011;48550;40.588;49.684;2023-03-01T05:11:32;92.93;;;37.05;;
60370;SDS011;48550;40.588;49.684;2023-03-01T05:14:07;100.20;;;38.67;;
60370;SDS011;48550;40.588;49.684;2023-03-01T05:16:34;94.53;;;39.58;;
60370;SDS011;48550;40.588;49.684;2023-03-01T05:19:01;89.13;;;40.15;;
60370;SDS011;48550;40.588;49.684;2023-03-01T05:21:39;96.55;;;40.00;;
60370;SDS011;48550;40.588;49.684;2023-03-01T05:24:23;112.82;;;41.28;;
60370;SDS011;48550;40.588;49.684;2023-03-01T05:26:49;98.47;;;41.08;;
60370;SDS011;48550;40.588;49.684;2023-03-01T05:29:17;100.90;;;41.72;;
60370;SDS011;48550;40.588;49.684;2023-03-01T05:31:53;104.60;;;43.88;;
60370;SDS011;48550;40.588;49.684;2023-03-01T05:34:23;101.70;;;41.50;;
60370;SDS011;48550;40.588;49.684;2023-03-01T05:36:57;93.03;;;41.40;;
60370;SDS011;48550;40.588;49.684;2023-03-01T05:39:24;93.80;;;42.50;;
60370;SDS011;48550;40.588;49.684;2023-03-01T05:41:52;85.93;;;40.65;;
60370;SDS011;48550;40.588;49.684;2023-03-01T05:44:19;88.40;;;39.17;;
60370;SDS011;48550;40.588;49.684;2023-03-01T05:46:45;86.38;;;39.78;;
60370;SDS011;48550;40.588;49.684;2023-03-01T05:49:14;99.15;;;42.30;;
60370;SDS011;48550;40.588;49.684;2023-03-01T05:51:41;83.05;;;38.45;;
60370;SDS011;48550;40.588;49.684;2023-03-01T05:54:08;85.97;;;34.22;;
60370;SDS011;48550;40.588;49.684;2023-03-01T05:56:35;75.70;;;32.42;;
60370;SDS011;48550;40.588;49.684;2023-03-01T05:59:03;76.72;;;33.70;;
60370;SDS011;48550;40.588;49.684;2023-03-01T06:01:33;81.05;;;38.15;;
60370;SDS011;48550;40.588;49.684;2023-03-01T06:03:59;69.95;;;31.88;;
60370;SDS011;48550;40.588;49.684;2023-03-01T06:06:25;80.22;;;32.38;;
60370;SDS011;48550;40.588;49.684;2023-03-01T06:08:51;59.25;;;29.40;;
60370;SDS011;48550;40.588;49.684;2023-03-01T06:11:17;83.07;;;41.90;;
60370;SDS011;48550;40.588;49.684;2023-03-01T06:13:43;62.67;;;30.85;;
60370;SDS011;48550;40.588;49.684;2023-03-01T06:16:10;65.57;;;29.83;;
60370;SDS011;48550;40.588;49.684;2023-03-01T06:18:36;77.32;;;31.60;;
60370;SDS011;48550;40.588;49.684;2023-03-01T06:21:02;60.55;;;30.13;;
60370;SDS011;48550;40.588;49.684;2023-03-01T06:23:29;69.90;;;31.48;;
60370;SDS011;48550;40.588;49.684;2023-03-01T06:25:56;66.95;;;29.67;;
60370;SDS011;48550;40.588;49.684;2023-03-01T06:28:22;61.22;;;31.25;;
60370;SDS011;48550;40.588;49.684;2023-03-01T06:30:49;67.82;;;31.88;;
60370;SDS011;48550;40.588;49.684;2023-03-01T06:33:16;74.95;;;33.13;;
60370;SDS011;48550;40.588;49.684;2023-03-01T06:35:45;73.75;;;31.00;;
60370;SDS011;48550;40.588;49.684;2023-03-01T06:38:12;75.30;;;36.45;;
60370;SDS011;48550;40.588;49.684;2023-03-01T06:40:40;78.07;;;36.55;;
60370;SDS011;48550;40.588;49.684;2023-03-01T06:43:06;67.15;;;33.08;;
60370;SDS011;48550;40.588;49.684;2023-03-01T06:45:32;67.03;;;32.55;;
60370;SDS011;48550;40.588;49.684;2023-03-01T06:48:02;69.10;;;33.35;;
60370;SDS011;48550;40.588;49.684;2023-03-01T06:50:30;63.08;;;31.88;;
60370;SDS011;48550;40.588;49.684;2023-03-01T06:52:56;67.25;;;32.08;;
60370;SDS011;48550;40.588;49.684;2023-03-01T06:55:22;65.03;;;31.60;;
60370;SDS011;48550;40.588;49.684;2023-03-01T06:57:48;67.85;;;34.03;;
60370;SDS011;48550;40.588;49.684;2023-03-01T07:00:13;64.37;;;35.27;;
60370;SDS011;48550;40.588;49.684;2023-03-01T07:02:40;68.10;;;36.20;;
60370;SDS011;48550;40.588;49.684;2023-03-01T07:05:05;70.63;;;37.83;;
60370;SDS011;48550;40.588;49.684;2023-03-01T07:07:31;70.05;;;36.45;;
60370;SDS011;48550;40.588;49.684;2023-03-01T07:09:57;64.10;;;36.20;;
60370;SDS011;48550;40.588;49.684;2023-03-01T07:12:23;58.25;;;29.45;;
60370;SDS011;48550;40.588;49.684;2023-03-01T07:14:49;63.72;;;34.25;;
60370;SDS011;48550;40.588;49.684;2023-03-01T07:17:14;62.58;;;32.85;;
60370;SDS011;48550;40.588;49.684;2023-03-01T07:19:40;60.53;;;30.77;;
60370;SDS011;48550;40.588;49.684;2023-03-01T07:22:06;58.88;;;30.67;;
60370;SDS011;48550;40.588;49.684;2023-03-01T07:24:33;53.85;;;29.73;;
60370;SDS011;48550;40.588;49.684;2023-03-01T07:26:59;52.08;;;27.20;;
60370;SDS011;48550;40.588;49.684;2023-03-01T07:29:24;48.97;;;26.17;;
60370;SDS011;48550;40.588;49.684;2023-03-01T07:31:51;55.95;;;26.38;;
60370;SDS011;48550;40.588;49.684;2023-03-01T07:34:17;57.65;;;27.67;;
60370;SDS011;48550;40.588;49.684;2023-03-01T07:36:43;56.47;;;29.48;;
60370;SDS011;48550;40.588;49.684;2023-03-01T07:39:10;58.63;;;28.52;;
60370;SDS011;48550;40.588;49.684;2023-03-01T07:41:37;53.72;;;27.33;;
60370;SDS011;48550;40.588;49.684;2023-03-01T07:44:02;56.53;;;29.05;;
60370;SDS011;48550;40.588;49.684;2023-03-01T07:46:29;55.97;;;29.20;;
60370;SDS011;48550;40.588;49.684;2023-03-01T07:48:54;54.35;;;27.58;;
60370;SDS011;48550;40.588;49.684;2023-03-01T07:51:20;60.50;;;30.33;;
60370;SDS011;48550;40.588;49.684;2023-03-01T07:53:47;47.63;;;25.65;;
60370;SDS011;48550;40.588;49.684;2023-03-01T07:56:13;48.35;;;25.38;;
60370;SDS011;48550;40.588;49.684;2023-03-01T07:58:42;48.58;;;26.02;;
60370;SDS011;48550;40.588;49.684;2023-03-01T08:01:09;42.92;;;23.55;;
60370;SDS011;48550;40.588;49.684;2023-03-01T08:03:37;49.30;;;24.65;;
60370;SDS011;48550;40.588;49.684;2023-03-01T08:06:04;42.28;;;21.92;;
60370;SDS011;48550;40.588;49.684;2023-03-01T08:08:31;43.55;;;22.13;;
60370;SDS011;48550;40.588;49.684;2023-03-01T08:10:58;34.38;;;19.60;;
60370;SDS011;48550;40.588;49.684;2023-03-01T08:13:25;38.65;;;20.25;;
60370;SDS011;48550;40.588;49.684;2023-03-01T08:15:52;36.05;;;18.80;;
60370;SDS011;48550;40.588;49.684;2023-03-01T08:18:18;37.05;;;19.02;;
60370;SDS011;48550;40.588;49.684;2023-03-01T08:20:46;30.30;;;17.17;;
60370;SDS011;48550;40.588;49.684;2023-03-01T08:23:12;40.00;;;19.27;;
60370;SDS011;48550;40.588;49.684;2023-03-01T08:25:38;40.53;;;20.70;;
60370;SDS011;48550;40.588;49.684;2023-03-01T08:28:05;38.17;;;18.13;;
60370;SDS011;48550;40.588;49.684;2023-03-01T08:30:31;30.73;;;17.08;;
60370;SDS011;48550;40.588;49.684;2023-03-01T08:32:57;33.28;;;17.08;;
60370;SDS011;48550;40.588;49.684;2023-03-01T08:35:22;29.38;;;16.38;;
60370;SDS011;48550;40.588;49.684;2023-03-01T08:37:48;30.13;;;15.75;;
60370;SDS011;48550;40.588;49.684;2023-03-01T08:40:14;29.65;;;16.02;;
60370;SDS011;48550;40.588;49.684;2023-03-01T08:42:40;29.73;;;15.02;;
60370;SDS011;48550;40.588;49.684;2023-03-01T08:45:08;27.00;;;15.98;;
60370;SDS011;48550;40.588;49.684;2023-03-01T08:47:35;32.35;;;16.00;;
60370;SDS011;48550;40.588;49.684;2023-03-01T08:50:00;28.42;;;15.90;;
60370;SDS011;48550;40.588;49.684;2023-03-01T08:52:26;29.63;;;15.68;;
60370;SDS011;48550;40.588;49.684;2023-03-01T08:54:52;32.95;;;15.73;;
60370;SDS011;48550;40.588;49.684;2023-03-01T08:57:18;28.58;;;16.50;;
60370;SDS011;48550;40.588;49.684;2023-03-01T08:59:44;34.58;;;18.67;;
60370;SDS011;48550;40.588;49.684;2023-03-01T09:02:13;28.95;;;16.30;;
60370;SDS011;48550;40.588;49.684;2023-03-01T09:04:41;28.38;;;15.85;;
60370;SDS011;48550;40.588;49.684;2023-03-01T09:07:08;26.88;;;15.20;;
60370;SDS011;48550;40.588;49.684;2023-03-01T09:09:34;30.20;;;15.73;;
60370;SDS011;48550;40.588;49.684;2023-03-01T09:12:00;28.52;;;15.73;;
60370;SDS011;48550;40.588;49.684;2023-03-01T09:14:27;30.30;;;15.63;;
60370;SDS011;48550;40.588;49.684;2023-03-01T09:16:53;25.63;;;14.90;;
60370;SDS011;48550;40.588;49.684;2023-03-01T09:19:18;36.35;;;16.67;;
60370;SDS011;48550;40.588;49.684;2023-03-01T09:21:44;27.95;;;15.43;;
60370;SDS011;48550;40.588;49.684;2023-03-01T09:24:18;27.67;;;15.40;;
60370;SDS011;48550;40.588;49.684;2023-03-01T09:26:46;27.00;;;14.77;;
60370;SDS011;48550;40.588;49.684;2023-03-01T09:29:12;27.70;;;15.48;;
60370;SDS011;48550;40.588;49.684;2023-03-01T09:31:39;26.38;;;15.73;;
60370;SDS011;48550;40.588;49.684;2023-03-01T09:34:06;31.45;;;15.75;;
60370;SDS011;48550;40.588;49.684;2023-03-01T09:36:32;26.55;;;15.13;;
60370;SDS011;48550;40.588;49.684;2023-03-01T09:38:59;26.65;;;14.85;;
60370;SDS011;48550;40.588;49.684;2023-03-01T09:41:45;27.10;;;14.00;;
60370;SDS011;48550;40.588;49.684;2023-03-01T09:47:18;23.98;;;13.63;;
60370;SDS011;48550;40.588;49.684;2023-03-01T09:50:04;25.73;;;14.88;;
60370;SDS011;48550;40.588;49.684;2023-03-01T09:53:15;24.92;;;14.35;;
60370;SDS011;48550;40.588;49.684;2023-03-01T10:01:49;23.50;;;14.15;;
60370;SDS011;48550;40.588;49.684;2023-03-01T10:09:21;29.65;;;15.82;;
60370;SDS011;48550;40.588;49.684;2023-03-01T10:11:53;25.13;;;15.15;;
60370;SDS011;48550;40.588;49.684;2023-03-01T10:16:54;28.45;;;15.57;;
60370;SDS011;48550;40.588;49.684;2023-03-01T10:22:19;23.60;;;15.05;;
60370;SDS011;48550;40.588;49.684;2023-03-01T10:24:47;25.98;;;15.13;;
60370;SDS011;48550;40.588;49.684;2023-03-01T10:27:24;28.10;;;14.93;;
60370;SDS011;48550;40.588;49.684;2023-03-01T10:30:02;28.52;;;15.73;;
60370;SDS011;48550;40.588;49.684;2023-03-01T10:34:57;29.27;;;15.82;;
60370;SDS011;48550;40.588;49.684;2023-03-01T10:37:23;32.10;;;16.52;;
60370;SDS011;48550;40.588;49.684;2023-03-01T10:39:55;30.83;;;16.75;;
60370;SDS011;48550;40.588;49.684;2023-03-01T10:42:35;28.17;;;16.20;;
60370;SDS011;48550;40.588;49.684;2023-03-01T10:48:36;24.05;;;14.05;;
60370;SDS011;48550;40.588;49.684;2023-03-01T10:50:49;27.25;;;15.60;;
60370;SDS011;48550;40.588;49.684;2023-03-01T10:53:43;33.72;;;16.55;;
60370;SDS011;48550;40.588;49.684;2023-03-01T10:56:15;32.70;;;16.45;;
60370;SDS011;48550;40.588;49.684;2023-03-01T10:58:56;28.40;;;16.60;;
60370;SDS011;48550;40.588;49.684;2023-03-01T11:04:12;31.27;;;16.38;;
60370;SDS011;48550;40.588;49.684;2023-03-01T11:06:39;27.92;;;15.15;;
60370;SDS011;48550;40.588;49.684;2023-03-01T11:09:40;32.05;;;16.23;;
60370;SDS011;48550;40.588;49.684;2023-03-01T11:12:08;27.15;;;15.63;;
60370;SDS011;48550;40.588;49.684;2023-03-01T11:14:46;29.25;;;15.20;;
60370;SDS011;48550;40.588;49.684;2023-03-01T11:20:00;28.95;;;16.30;;
60370;SDS011;48550;40.588;49.684;2023-03-01T11:22:30;31.08;;;16.17;;
60370;SDS011;48550;40.588;49.684;2023-03-01T11:24:58;31.20;;;16.77;;
60370;SDS011;48550;40.588;49.684;2023-03-01T11:27:30;33.35;;;17.13;;
60370;SDS011;48550;40.588;49.684;2023-03-01T11:32:43;33.63;;;17.17;;
60370;SDS011;48550;40.588;49.684;2023-03-01T11:35:16;33.92;;;16.13;;
60370;SDS011;48550;40.588;49.684;2023-03-01T11:40:31;37.03;;;17.75;;
60370;SDS011;48550;40.588;49.684;2023-03-01T11:56:55;31.08;;;15.65;;
60370;SDS011;48550;40.588;49.684;2023-03-01T11:59:40;31.60;;;15.18;;
60370;SDS011;48550;40.588;49.684;2023-03-01T12:10:43;34.42;;;16.90;;
60370;SDS011;48550;40.588;49.684;2023-03-01T12:19:00;27.60;;;15.52;;
60370;SDS011;48550;40.588;49.684;2023-03-01T12:21:46;31.80;;;16.05;;
60370;SDS011;48550;40.588;49.684;2023-03-01T12:35:49;28.90;;;16.08;;
60370;SDS011;48550;40.588;49.684;2023-03-01T12:38:49;28.40;;;16.52;;
60370;SDS011;48550;40.588;49.684;2023-03-01T12:49:57;30.10;;;15.85;;
60370;SDS011;48550;40.588;49.684;2023-03-01T12:52:44;28.77;;;15.77;;
60370;SDS011;48550;40.588;49.684;2023-03-01T12:55:25;27.40;;;15.30;;
60370;SDS011;48550;40.588;49.684;2023-03-01T12:58:42;33.10;;;15.38;;
60370;SDS011;48550;40.588;49.684;2023-03-01T13:00:46;27.90;;;15.40;;
60370;SDS011;48550;40.588;49.684;2023-03-01T13:08:44;32.42;;;16.45;;
60370;SDS011;48550;40.588;49.684;2023-03-01T13:11:17;27.85;;;15.32;;
60370;SDS011;48550;40.588;49.684;2023-03-01T13:13:45;32.70;;;16.77;;
60370;SDS011;48550;40.588;49.684;2023-03-01T13:19:13;29.67;;;16.27;;
60370;SDS011;48550;40.588;49.684;2023-03-01T13:21:42;34.17;;;15.50;;
60370;SDS011;48550;40.588;49.684;2023-03-01T13:24:55;34.20;;;15.88;;
60370;SDS011;48550;40.588;49.684;2023-03-01T13:29:31;32.03;;;16.10;;
60370;SDS011;48550;40.588;49.684;2023-03-01T13:32:30;30.88;;;14.60;;
60370;SDS011;48550;40.588;49.684;2023-03-01T13:37:42;29.83;;;14.88;;
60370;SDS011;48550;40.588;49.684;2023-03-01T13:42:43;26.02;;;14.95;;
60370;SDS011;48550;40.588;49.684;2023-03-01T13:48:16;33.33;;;14.20;;
60370;SDS011;48550;40.588;49.684;2023-03-01T13:50:50;29.80;;;13.35;;
60370;SDS011;48550;40.588;49.684;2023-03-01T13:53:21;33.78;;;15.27;;
60370;SDS011;48550;40.588;49.684;2023-03-01T13:55:55;30.85;;;15.98;;
60370;SDS011;48550;40.588;49.684;2023-03-01T13:58:30;28.35;;;14.43;;
60370;SDS011;48550;40.588;49.684;2023-03-01T14:01:04;33.38;;;14.40;;
60370;SDS011;48550;40.588;49.684;2023-03-01T14:03:32;46.22;;;20.60;;
60370;SDS011;48550;40.588;49.684;2023-03-01T14:06:04;38.70;;;16.92;;
60370;SDS011;48550;40.588;49.684;2023-03-01T14:08:43;32.83;;;13.23;;
60370;SDS011;48550;40.588;49.684;2023-03-01T14:14:36;33.45;;;14.18;;
60370;SDS011;48550;40.588;49.684;2023-03-01T14:19:28;27.27;;;14.30;;
60370;SDS011;48550;40.588;49.684;2023-03-01T14:21:59;31.92;;;14.63;;
60370;SDS011;48550;40.588;49.684;2023-03-01T14:24:37;35.95;;;14.55;;
60370;SDS011;48550;40.588;49.684;2023-03-01T14:27:09;34.05;;;13.95;;
60370;SDS011;48550;40.588;49.684;2023-03-01T14:29:38;35.60;;;14.25;;
60370;SDS011;48550;40.588;49.684;2023-03-01T14:32:08;29.80;;;13.68;;
60370;SDS011;48550;40.588;49.684;2023-03-01T14:34:54;26.05;;;12.85;;
60370;SDS011;48550;40.588;49.684;2023-03-01T14:39:54;28.00;;;13.27;;
60370;SDS011;48550;40.588;49.684;2023-03-01T14:42:21;28.50;;;13.60;;
60370;SDS011;48550;40.588;49.684;2023-03-01T14:44:50;31.30;;;12.80;;
60370;SDS011;48550;40.588;49.684;2023-03-01T14:47:31;30.00;;;12.80;;
60370;SDS011;48550;40.588;49.684;2023-03-01T14:50:02;37.45;;;14.90;;
60370;SDS011;48550;40.588;49.684;2023-03-01T14:52:48;33.15;;;13.82;;
60370;SDS011;48550;40.588;49.684;2023-03-01T14:55:18;25.95;;;12.75;;
60370;SDS011;48550;40.588;49.684;2023-03-01T14:57:49;37.92;;;14.48;;
60370;SDS011;48550;40.588;49.684;2023-03-01T15:00:26;32.42;;;14.43;;
60370;SDS011;48550;40.588;49.684;2023-03-01T15:02:54;34.20;;;14.10;;
60370;SDS011;48550;40.588;49.684;2023-03-01T15:05:29;26.88;;;11.68;;
60370;SDS011;48550;40.588;49.684;2023-03-01T15:07:57;32.72;;;13.68;;
60370;SDS011;48550;40.588;49.684;2023-03-01T15:10:26;31.65;;;13.07;;
60370;SDS011;48550;40.588;49.684;2023-03-01T15:12:54;31.98;;;13.00;;
60370;SDS011;48550;40.588;49.684;2023-03-01T15:15:23;31.83;;;14.25;;
60370;SDS011;48550;40.588;49.684;2023-03-01T15:18:12;26.23;;;12.63;;
60370;SDS011;48550;40.588;49.684;2023-03-01T15:20:52;28.88;;;13.15;;
60370;SDS011;48550;40.588;49.684;2023-03-01T15:23:23;35.17;;;14.13;;
60370;SDS011;48550;40.588;49.684;2023-03-01T15:25:51;34.47;;;14.25;;
60370;SDS011;48550;40.588;49.684;2023-03-01T15:28:28;32.75;;;14.00;;
60370;SDS011;48550;40.588;49.684;2023-03-01T15:31:02;31.58;;;13.40;;
60370;SDS011;48550;40.588;49.684;2023-03-01T15:33:33;32.03;;;12.18;;
60370;SDS011;48550;40.588;49.684;2023-03-01T15:36:01;37.78;;;15.02;;
60370;SDS011;48550;40.588;49.684;2023-03-01T15:38:55;36.78;;;14.63;;
60370;SDS011;48550;40.588;49.684;2023-03-01T15:41:28;34.90;;;13.90;;
60370;SDS011;48550;40.588;49.684;2023-03-01T15:43:59;34.17;;;14.80;;
60370;SDS011;48550;40.588;49.684;2023-03-01T15:49:02;35.50;;;14.93;;
60370;SDS011;48550;40.588;49.684;2023-03-01T15:51:43;36.22;;;14.55;;
60370;SDS011;48550;40.588;49.684;2023-03-01T15:54:20;44.33;;;16.30;;
60370;SDS011;48550;40.588;49.684;2023-03-01T15:56:48;41.15;;;15.02;;
60370;SDS011;48550;40.588;49.684;2023-03-01T15:59:14;40.72;;;16.63;;
60370;SDS011;48550;40.588;49.684;2023-03-01T16:01:40;37.50;;;15.82;;
60370;SDS011;48550;40.588;49.684;2023-03-01T16:04:08;39.35;;;16.85;;
60370;SDS011;48550;40.588;49.684;2023-03-01T16:06:36;43.25;;;17.35;;
60370;SDS011;48550;40.588;49.684;2023-03-01T16:09:04;42.47;;;16.42;;
60370;SDS011;48550;40.588;49.684;2023-03-01T16:11:30;39.92;;;17.70;;
60370;SDS011;48550;40.588;49.684;2023-03-01T16:13:57;40.05;;;16.08;;
60370;SDS011;48550;40.588;49.684;2023-03-01T16:16:23;44.22;;;17.13;;
60370;SDS011;48550;40.588;49.684;2023-03-01T16:18:49;43.35;;;19.85;;
60370;SDS011;48550;40.588;49.684;2023-03-01T16:21:16;49.00;;;18.98;;
60370;SDS011;48550;40.588;49.684;2023-03-01T16:23:46;49.88;;;20.35;;
60370;SDS011;48550;40.588;49.684;2023-03-01T16:26:12;44.55;;;18.75;;